sensor_id;sensor_type;location;lat;lon;timestamp;P1;durP1;ratioP1;P2;durP2;ratioP2
20417;SDS011;10368;51.436;6.774;2023-05-07T00:01:44;5.78;;;5.28;;
20417;SDS011;10368;51.436;6.774;2023-05-07T00:04:11;7.85;;;6.32;;
20417;SDS011;10368;51.436;6.774;2023-05-07T00:06:39;6.32;;;5.82;;
20417;SDS011;10368;51.436;6.774;2023-05-07T00:09:06;6.35;;;5.75;;
20417;SDS011;10368;51.436;6.774;2023-05-07T00:11:33;6.32;;;5.80;;
20417;SDS011;10368;51.436;6.774;2023-05-07T00:14:02;7.60;;;6.57;;
20417;SDS011;10368;51.436;6.774;2023-05-07T00:16:29;7.35;;;6.65;;
20417;SDS011;10368;51.436;6.774;2023-05-07T00:18:56;8.63;;;6.90;;
20417;SDS011;10368;51.436;6.774;2023-05-07T00:21:23;7.45;;;6.75;;
20417;SDS011;10368;51.436;6.774;2023-05-07T00:23:53;7.57;;;6.88;;
20417;SDS011;10368;51.436;6.774;2023-05-07T00:26:20;7.72;;;6.93;;
20417;SDS011;10368;51.436;6.774;2023-05-07T00:28:47;10.57;;;7.60;;
20417;SDS011;10368;51.436;6.774;2023-05-07T00:31:14;7.50;;;6.80;;
20417;SDS011;10368;51.436;6.774;2023-05-07T00:33:41;7.60;;;6.90;;
20417;SDS011;10368;51.436;6.774;2023-05-07T00:36:08;10.10;;;7.15;;
20417;SDS011;10368;51.436;6.774;2023-05-07T00:38:35;8.10;;;7.20;;
20417;SDS011;10368;51.436;6.774;2023-05-07T00:41:02;7.57;;;6.88;;
20417;SDS011;10368;51.436;6.774;2023-05-07T00:43:29;8.10;;;7.30;;
20417;SDS011;10368;51.436;6.774;2023-05-07T00:45:56;8.32;;;7.40;;
20417;SDS011;10368;51.436;6.774;2023-05-07T00:48:23;8.15;;;7.45;;
20417;SDS011;10368;51.436;6.774;2023-05-07T00:50:51;8.60;;;7.57;;
20417;SDS011;10368;51.436;6.774;2023-05-07T00:53:18;8.23;;;7.55;;
20417;SDS011;10368;51.436;6.774;2023-05-07T00:55:45;9.32;;;8.30;;
20417;SDS011;10368;51.436;6.774;2023-05-07T00:58:12;9.77;;;8.88;;
20417;SDS011;10368;51.436;6.774;2023-05-07T01:00:39;8.23;;;7.43;;
20417;SDS011;10368;51.436;6.774;2023-05-07T01:03:06;8.07;;;7.13;;
20417;SDS011;10368;51.436;6.774;2023-05-07T01:05:34;8.60;;;7.70;;
20417;SDS011;10368;51.436;6.774;2023-05-07T01:08:01;10.10;;;8.57;;
20417;SDS011;10368;51.436;6.774;2023-05-07T01:10:29;9.48;;;8.57;;
20417;SDS011;10368;51.436;6.774;2023-05-07T01:12:57;9.40;;;8.57;;
20417;SDS011;10368;51.436;6.774;2023-05-07T01:15:25;9.52;;;8.68;;
20417;SDS011;10368;51.436;6.774;2023-05-07T01:17:52;8.27;;;7.57;;
20417;SDS011;10368;51.436;6.774;2023-05-07T01:20:19;9.35;;;8.55;;
20417;SDS011;10368;51.436;6.774;2023-05-07T01:22:46;9.55;;;8.55;;
20417;SDS011;10368;51.436;6.774;2023-05-07T01:25:13;10.00;;;9.05;;
20417;SDS011;10368;51.436;6.774;2023-05-07T01:27:42;10.32;;;9.43;;
20417;SDS011;10368;51.436;6.774;2023-05-07T01:30:09;9.85;;;8.85;;
20417;SDS011;10368;51.436;6.774;2023-05-07T01:32:42;10.73;;;9.73;;
20417;SDS011;10368;51.436;6.774;2023-05-07T01:35:19;9.55;;;8.65;;
20417;SDS011;10368;51.436;6.774;2023-05-07T01:37:47;10.80;;;9.82;;
20417;SDS011;10368;51.436;6.774;2023-05-07T01:40:15;10.95;;;9.93;;
20417;SDS011;10368;51.436;6.774;2023-05-07T01:42:43;9.82;;;8.57;;
20417;SDS011;10368;51.436;6.774;2023-05-07T01:45:10;9.30;;;8.40;;
20417;SDS011;10368;51.436;6.774;2023-05-07T01:47:37;10.18;;;9.27;;
20417;SDS011;10368;51.436;6.774;2023-05-07T01:50:06;10.82;;;9.82;;
20417;SDS011;10368;51.436;6.774;2023-05-07T01:52:36;9.95;;;9.07;;
20417;SDS011;10368;51.436;6.774;2023-05-07T01:55:05;10.52;;;9.43;;
20417;SDS011;10368;51.436;6.774;2023-05-07T01:57:32;11.27;;;10.05;;
20417;SDS011;10368;51.436;6.774;2023-05-07T01:59:59;9.88;;;8.98;;
20417;SDS011;10368;51.436;6.774;2023-05-07T02:02:26;11.40;;;9.02;;
20417;SDS011;10368;51.436;6.774;2023-05-07T02:04:53;10.85;;;9.68;;
20417;SDS011;10368;51.436;6.774;2023-05-07T02:07:20;10.52;;;9.57;;
20417;SDS011;10368;51.436;6.774;2023-05-07T02:09:46;9.68;;;8.77;;
20417;SDS011;10368;51.436;6.774;2023-05-07T02:12:13;12.30;;;9.70;;
20417;SDS011;10368;51.436;6.774;2023-05-07T02:14:40;9.57;;;8.77;;
20417;SDS011;10368;51.436;6.774;2023-05-07T02:17:07;8.95;;;8.13;;
20417;SDS011;10368;51.436;6.774;2023-05-07T02:19:34;9.32;;;8.52;;
20417;SDS011;10368;51.436;6.774;2023-05-07T02:22:01;11.23;;;9.00;;
20417;SDS011;10368;51.436;6.774;2023-05-07T02:24:28;9.35;;;8.50;;
20417;SDS011;10368;51.436;6.774;2023-05-07T02:26:55;8.60;;;7.80;;
20417;SDS011;10368;51.436;6.774;2023-05-07T02:29:21;8.60;;;7.72;;
20417;SDS011;10368;51.436;6.774;2023-05-07T02:31:48;9.80;;;8.05;;
20417;SDS011;10368;51.436;6.774;2023-05-07T02:34:17;9.00;;;8.10;;
20417;SDS011;10368;51.436;6.774;2023-05-07T02:36:44;9.57;;;7.45;;
20417;SDS011;10368;51.436;6.774;2023-05-07T02:39:12;9.43;;;8.55;;
20417;SDS011;10368;51.436;6.774;2023-05-07T02:41:39;8.93;;;7.90;;
20417;SDS011;10368;51.436;6.774;2023-05-07T02:44:06;8.23;;;7.43;;
20417;SDS011;10368;51.436;6.774;2023-05-07T02:46:32;9.20;;;8.38;;
20417;SDS011;10368;51.436;6.774;2023-05-07T02:48:59;7.65;;;6.95;;
20417;SDS011;10368;51.436;6.774;2023-05-07T02:51:26;8.93;;;8.13;;
20417;SDS011;10368;51.436;6.774;2023-05-07T02:53:53;9.18;;;8.27;;
20417;SDS011;10368;51.436;6.774;2023-05-07T02:56:20;9.35;;;8.00;;
20417;SDS011;10368;51.436;6.774;2023-05-07T02:58:47;12.02;;;9.70;;
20417;SDS011;10368;51.436;6.774;2023-05-07T03:01:13;10.25;;;9.18;;
20417;SDS011;10368;51.436;6.774;2023-05-07T03:03:41;9.57;;;8.73;;
20417;SDS011;10368;51.436;6.774;2023-05-07T03:06:07;9.68;;;8.88;;
20417;SDS011;10368;51.436;6.774;2023-05-07T03:08:34;10.55;;;9.45;;
20417;SDS011;10368;51.436;6.774;2023-05-07T03:11:02;10.88;;;9.05;;
20417;SDS011;10368;51.436;6.774;2023-05-07T03:13:29;13.05;;;10.90;;
20417;SDS011;10368;51.436;6.774;2023-05-07T03:15:56;11.25;;;10.10;;
20417;SDS011;10368;51.436;6.774;2023-05-07T03:18:23;13.07;;;10.10;;
20417;SDS011;10368;51.436;6.774;2023-05-07T03:20:50;12.05;;;10.77;;
20417;SDS011;10368;51.436;6.774;2023-05-07T03:23:18;11.63;;;10.50;;
20417;SDS011;10368;51.436;6.774;2023-05-07T03:25:45;12.07;;;11.00;;
20417;SDS011;10368;51.436;6.774;2023-05-07T03:28:11;13.32;;;12.05;;
20417;SDS011;10368;51.436;6.774;2023-05-07T03:30:38;12.05;;;11.02;;
20417;SDS011;10368;51.436;6.774;2023-05-07T03:33:05;12.73;;;11.45;;
20417;SDS011;10368;51.436;6.774;2023-05-07T03:35:32;12.57;;;11.30;;
20417;SDS011;10368;51.436;6.774;2023-05-07T03:37:59;13.00;;;11.32;;
20417;SDS011;10368;51.436;6.774;2023-05-07T03:40:27;13.50;;;12.10;;
20417;SDS011;10368;51.436;6.774;2023-05-07T03:42:55;15.10;;;11.50;;
20417;SDS011;10368;51.436;6.774;2023-05-07T03:45:21;12.52;;;11.23;;
20417;SDS011;10368;51.436;6.774;2023-05-07T03:47:48;12.60;;;11.40;;
20417;SDS011;10368;51.436;6.774;2023-05-07T03:50:15;13.02;;;11.70;;
20417;SDS011;10368;51.436;6.774;2023-05-07T03:52:42;13.13;;;11.93;;
20417;SDS011;10368;51.436;6.774;2023-05-07T03:55:09;12.65;;;11.45;;
20417;SDS011;10368;51.436;6.774;2023-05-07T03:57:36;14.23;;;12.80;;
20417;SDS011;10368;51.436;6.774;2023-05-07T04:00:03;12.43;;;11.23;;
20417;SDS011;10368;51.436;6.774;2023-05-07T04:02:31;12.80;;;11.60;;
20417;SDS011;10368;51.436;6.774;2023-05-07T04:04:59;13.32;;;12.02;;
20417;SDS011;10368;51.436;6.774;2023-05-07T04:07:25;14.02;;;12.63;;
20417;SDS011;10368;51.436;6.774;2023-05-07T04:09:52;12.50;;;11.23;;
20417;SDS011;10368;51.436;6.774;2023-05-07T04:12:19;21.00;;;12.13;;
20417;SDS011;10368;51.436;6.774;2023-05-07T04:14:46;12.57;;;11.27;;
20417;SDS011;10368;51.436;6.774;2023-05-07T04:17:13;12.82;;;11.55;;
20417;SDS011;10368;51.436;6.774;2023-05-07T04:19:40;14.98;;;12.95;;
20417;SDS011;10368;51.436;6.774;2023-05-07T04:22:11;13.77;;;12.43;;
20417;SDS011;10368;51.436;6.774;2023-05-07T04:24:38;14.32;;;12.73;;
20417;SDS011;10368;51.436;6.774;2023-05-07T04:27:05;13.43;;;11.93;;
20417;SDS011;10368;51.436;6.774;2023-05-07T04:29:32;13.77;;;12.50;;
20417;SDS011;10368;51.436;6.774;2023-05-07T04:31:59;13.48;;;12.02;;
20417;SDS011;10368;51.436;6.774;2023-05-07T04:34:26;17.08;;;13.85;;
20417;SDS011;10368;51.436;6.774;2023-05-07T04:36:53;14.23;;;12.82;;
20417;SDS011;10368;51.436;6.774;2023-05-07T04:39:20;15.00;;;13.50;;
20417;SDS011;10368;51.436;6.774;2023-05-07T04:41:47;15.80;;;14.10;;
20417;SDS011;10368;51.436;6.774;2023-05-07T04:44:13;15.13;;;13.80;;
20417;SDS011;10368;51.436;6.774;2023-05-07T04:46:40;14.43;;;13.23;;
20417;SDS011;10368;51.436;6.774;2023-05-07T04:49:07;15.40;;;13.98;;
20417;SDS011;10368;51.436;6.774;2023-05-07T04:51:34;15.05;;;13.48;;
20417;SDS011;10368;51.436;6.774;2023-05-07T04:54:01;15.73;;;14.23;;
20417;SDS011;10368;51.436;6.774;2023-05-07T04:56:28;15.20;;;13.68;;
20417;SDS011;10368;51.436;6.774;2023-05-07T04:58:58;13.68;;;12.45;;
20417;SDS011;10368;51.436;6.774;2023-05-07T05:01:25;14.55;;;13.25;;
20417;SDS011;10368;51.436;6.774;2023-05-07T05:03:52;14.40;;;13.00;;
20417;SDS011;10368;51.436;6.774;2023-05-07T05:06:19;17.27;;;15.05;;
20417;SDS011;10368;51.436;6.774;2023-05-07T05:08:46;15.43;;;13.80;;
20417;SDS011;10368;51.436;6.774;2023-05-07T05:11:14;15.15;;;13.75;;
20417;SDS011;10368;51.436;6.774;2023-05-07T05:13:41;16.88;;;14.40;;
20417;SDS011;10368;51.436;6.774;2023-05-07T05:16:07;14.90;;;13.30;;
20417;SDS011;10368;51.436;6.774;2023-05-07T05:18:34;16.40;;;13.85;;
20417;SDS011;10368;51.436;6.774;2023-05-07T05:21:01;15.38;;;13.80;;
20417;SDS011;10368;51.436;6.774;2023-05-07T05:23:28;17.77;;;15.93;;
20417;SDS011;10368;51.436;6.774;2023-05-07T05:25:58;15.25;;;13.73;;
20417;SDS011;10368;51.436;6.774;2023-05-07T05:28:25;16.70;;;15.00;;
20417;SDS011;10368;51.436;6.774;2023-05-07T05:30:53;14.07;;;12.88;;
20417;SDS011;10368;51.436;6.774;2023-05-07T05:33:20;15.50;;;14.05;;
20417;SDS011;10368;51.436;6.774;2023-05-07T05:35:47;14.98;;;13.55;;
20417;SDS011;10368;51.436;6.774;2023-05-07T05:38:15;14.30;;;12.88;;
20417;SDS011;10368;51.436;6.774;2023-05-07T05:40:42;15.98;;;14.60;;
20417;SDS011;10368;51.436;6.774;2023-05-07T05:43:09;15.75;;;14.35;;
20417;SDS011;10368;51.436;6.774;2023-05-07T05:45:36;14.95;;;13.57;;
20417;SDS011;10368;51.436;6.774;2023-05-07T05:48:03;15.43;;;13.93;;
20417;SDS011;10368;51.436;6.774;2023-05-07T05:50:30;15.38;;;13.88;;
20417;SDS011;10368;51.436;6.774;2023-05-07T05:52:56;17.00;;;15.45;;
20417;SDS011;10368;51.436;6.774;2023-05-07T05:55:25;17.70;;;14.93;;
20417;SDS011;10368;51.436;6.774;2023-05-07T05:57:52;15.18;;;13.57;;
20417;SDS011;10368;51.436;6.774;2023-05-07T06:00:19;14.80;;;13.50;;
20417;SDS011;10368;51.436;6.774;2023-05-07T06:02:48;15.52;;;14.13;;
20417;SDS011;10368;51.436;6.774;2023-05-07T06:05:16;15.73;;;14.32;;
20417;SDS011;10368;51.436;6.774;2023-05-07T06:07:43;15.55;;;14.05;;
20417;SDS011;10368;51.436;6.774;2023-05-07T06:10:10;15.60;;;13.82;;
20417;SDS011;10368;51.436;6.774;2023-05-07T06:12:37;15.48;;;14.13;;
20417;SDS011;10368;51.436;6.774;2023-05-07T06:15:04;14.73;;;13.02;;
20417;SDS011;10368;51.436;6.774;2023-05-07T06:17:31;14.10;;;12.63;;
20417;SDS011;10368;51.436;6.774;2023-05-07T06:19:58;13.65;;;12.27;;
20417;SDS011;10368;51.436;6.774;2023-05-07T06:22:25;13.10;;;11.90;;
20417;SDS011;10368;51.436;6.774;2023-05-07T06:24:52;12.80;;;11.70;;
20417;SDS011;10368;51.436;6.774;2023-05-07T06:27:18;11.98;;;10.55;;
20417;SDS011;10368;51.436;6.774;2023-05-07T06:29:47;10.93;;;9.93;;
20417;SDS011;10368;51.436;6.774;2023-05-07T06:32:15;11.00;;;10.05;;
20417;SDS011;10368;51.436;6.774;2023-05-07T06:34:43;11.10;;;10.10;;
20417;SDS011;10368;51.436;6.774;2023-05-07T06:37:10;10.85;;;9.68;;
20417;SDS011;10368;51.436;6.774;2023-05-07T06:39:36;10.05;;;9.05;;
20417;SDS011;10368;51.436;6.774;2023-05-07T06:42:03;10.05;;;8.95;;
20417;SDS011;10368;51.436;6.774;2023-05-07T06:44:31;9.20;;;8.45;;
20417;SDS011;10368;51.436;6.774;2023-05-07T06:46:57;9.15;;;8.30;;
20417;SDS011;10368;51.436;6.774;2023-05-07T06:49:25;10.02;;;9.05;;
20417;SDS011;10368;51.436;6.774;2023-05-07T06:51:51;10.52;;;8.02;;
20417;SDS011;10368;51.436;6.774;2023-05-07T06:54:18;10.13;;;8.15;;
20417;SDS011;10368;51.436;6.774;2023-05-07T06:56:46;8.38;;;7.40;;
20417;SDS011;10368;51.436;6.774;2023-05-07T06:59:13;8.98;;;8.07;;
20417;SDS011;10368;51.436;6.774;2023-05-07T07:01:40;10.27;;;7.05;;
20417;SDS011;10368;51.436;6.774;2023-05-07T07:04:07;8.10;;;7.30;;
20417;SDS011;10368;51.436;6.774;2023-05-07T07:06:34;7.57;;;6.82;;
20417;SDS011;10368;51.436;6.774;2023-05-07T07:09:00;7.55;;;6.80;;
20417;SDS011;10368;51.436;6.774;2023-05-07T07:11:27;6.85;;;5.78;;
20417;SDS011;10368;51.436;6.774;2023-05-07T07:13:54;9.43;;;7.13;;
20417;SDS011;10368;51.436;6.774;2023-05-07T07:16:21;6.22;;;5.50;;
20417;SDS011;10368;51.436;6.774;2023-05-07T07:18:48;6.68;;;6.03;;
20417;SDS011;10368;51.436;6.774;2023-05-07T07:21:15;5.85;;;5.25;;
20417;SDS011;10368;51.436;6.774;2023-05-07T07:23:42;6.18;;;5.57;;
20417;SDS011;10368;51.436;6.774;2023-05-07T07:26:09;6.10;;;5.60;;
20417;SDS011;10368;51.436;6.774;2023-05-07T07:28:41;9.25;;;4.82;;
20417;SDS011;10368;51.436;6.774;2023-05-07T07:31:12;5.43;;;4.93;;
20417;SDS011;10368;51.436;6.774;2023-05-07T07:33:39;5.57;;;4.70;;
20417;SDS011;10368;51.436;6.774;2023-05-07T07:36:06;4.25;;;3.85;;
20417;SDS011;10368;51.436;6.774;2023-05-07T07:38:33;5.53;;;5.03;;
20417;SDS011;10368;51.436;6.774;2023-05-07T07:41:01;5.82;;;5.22;;
20417;SDS011;10368;51.436;6.774;2023-05-07T07:43:28;6.55;;;5.40;;
20417;SDS011;10368;51.436;6.774;2023-05-07T07:45:55;7.30;;;6.40;;
20417;SDS011;10368;51.436;6.774;2023-05-07T07:48:21;8.20;;;5.72;;
20417;SDS011;10368;51.436;6.774;2023-05-07T07:50:49;6.55;;;5.55;;
20417;SDS011;10368;51.436;6.774;2023-05-07T07:53:19;6.03;;;5.53;;
20417;SDS011;10368;51.436;6.774;2023-05-07T07:55:46;8.45;;;7.53;;
20417;SDS011;10368;51.436;6.774;2023-05-07T07:58:13;8.65;;;7.20;;
20417;SDS011;10368;51.436;6.774;2023-05-07T08:00:40;6.18;;;5.60;;
20417;SDS011;10368;51.436;6.774;2023-05-07T08:03:08;7.07;;;4.93;;
20417;SDS011;10368;51.436;6.774;2023-05-07T08:05:36;6.03;;;5.43;;
20417;SDS011;10368;51.436;6.774;2023-05-07T08:08:04;6.15;;;4.97;;
20417;SDS011;10368;51.436;6.774;2023-05-07T08:10:32;5.72;;;5.13;;
20417;SDS011;10368;51.436;6.774;2023-05-07T08:13:01;5.10;;;4.70;;
20417;SDS011;10368;51.436;6.774;2023-05-07T08:15:30;5.30;;;4.35;;
20417;SDS011;10368;51.436;6.774;2023-05-07T08:17:57;6.68;;;5.18;;
20417;SDS011;10368;51.436;6.774;2023-05-07T08:20:26;4.60;;;4.13;;
20417;SDS011;10368;51.436;6.774;2023-05-07T08:22:54;4.95;;;4.20;;
20417;SDS011;10368;51.436;6.774;2023-05-07T08:25:21;4.97;;;4.50;;
20417;SDS011;10368;51.436;6.774;2023-05-07T08:27:48;6.07;;;4.40;;
20417;SDS011;10368;51.436;6.774;2023-05-07T08:30:15;6.65;;;5.10;;
20417;SDS011;10368;51.436;6.774;2023-05-07T08:32:42;7.10;;;6.00;;
20417;SDS011;10368;51.436;6.774;2023-05-07T08:35:09;6.40;;;5.80;;
20417;SDS011;10368;51.436;6.774;2023-05-07T08:37:36;4.75;;;4.07;;
20417;SDS011;10368;51.436;6.774;2023-05-07T08:40:03;3.67;;;3.38;;
20417;SDS011;10368;51.436;6.774;2023-05-07T08:42:36;3.88;;;3.58;;
20417;SDS011;10368;51.436;6.774;2023-05-07T08:45:04;3.45;;;3.15;;
20417;SDS011;10368;51.436;6.774;2023-05-07T08:47:46;5.93;;;3.80;;
20417;SDS011;10368;51.436;6.774;2023-05-07T08:50:16;5.97;;;3.28;;
20417;SDS011;10368;51.436;6.774;2023-05-07T08:52:44;3.38;;;2.78;;
20417;SDS011;10368;51.436;6.774;2023-05-07T08:55:11;4.15;;;2.97;;
20417;SDS011;10368;51.436;6.774;2023-05-07T08:57:39;2.80;;;2.58;;
20417;SDS011;10368;51.436;6.774;2023-05-07T09:00:06;4.85;;;2.40;;
20417;SDS011;10368;51.436;6.774;2023-05-07T09:02:37;3.80;;;2.75;;
20417;SDS011;10368;51.436;6.774;2023-05-07T09:05:04;4.93;;;2.50;;
20417;SDS011;10368;51.436;6.774;2023-05-07T09:07:31;3.97;;;3.42;;
20417;SDS011;10368;51.436;6.774;2023-05-07T09:10:00;4.63;;;4.00;;
20417;SDS011;10368;51.436;6.774;2023-05-07T09:12:28;4.75;;;4.13;;
20417;SDS011;10368;51.436;6.774;2023-05-07T09:14:55;3.30;;;3.00;;
20417;SDS011;10368;51.436;6.774;2023-05-07T09:17:22;5.63;;;5.10;;
20417;SDS011;10368;51.436;6.774;2023-05-07T09:19:49;3.35;;;3.05;;
20417;SDS011;10368;51.436;6.774;2023-05-07T09:22:16;2.83;;;2.58;;
20417;SDS011;10368;51.436;6.774;2023-05-07T09:24:50;2.53;;;2.33;;
20417;SDS011;10368;51.436;6.774;2023-05-07T09:27:18;2.85;;;2.65;;
20417;SDS011;10368;51.436;6.774;2023-05-07T09:29:45;5.22;;;4.75;;
20417;SDS011;10368;51.436;6.774;2023-05-07T09:32:11;2.60;;;2.40;;
20417;SDS011;10368;51.436;6.774;2023-05-07T09:34:39;2.40;;;2.20;;
20417;SDS011;10368;51.436;6.774;2023-05-07T09:37:07;2.38;;;2.17;;
20417;SDS011;10368;51.436;6.774;2023-05-07T09:39:47;2.65;;;2.45;;
20417;SDS011;10368;51.436;6.774;2023-05-07T09:42:15;6.85;;;2.63;;
20417;SDS011;10368;51.436;6.774;2023-05-07T09:44:45;2.28;;;2.05;;
20417;SDS011;10368;51.436;6.774;2023-05-07T09:47:14;5.72;;;2.72;;
20417;SDS011;10368;51.436;6.774;2023-05-07T09:49:46;5.38;;;2.75;;
20417;SDS011;10368;51.436;6.774;2023-05-07T09:52:14;3.72;;;2.40;;
20417;SDS011;10368;51.436;6.774;2023-05-07T09:54:42;6.95;;;2.05;;
20417;SDS011;10368;51.436;6.774;2023-05-07T09:57:10;2.28;;;2.08;;
20417;SDS011;10368;51.436;6.774;2023-05-07T09:59:38;2.10;;;1.90;;
20417;SDS011;10368;51.436;6.774;2023-05-07T10:02:08;4.97;;;3.58;;
20417;SDS011;10368;51.436;6.774;2023-05-07T10:04:36;3.95;;;2.20;;
20417;SDS011;10368;51.436;6.774;2023-05-07T10:07:03;51.70;;;46.67;;
20417;SDS011;10368;51.436;6.774;2023-05-07T10:09:31;6.50;;;3.65;;
20417;SDS011;10368;51.436;6.774;2023-05-07T10:11:59;2.50;;;2.30;;
20417;SDS011;10368;51.436;6.774;2023-05-07T10:14:26;2.42;;;1.83;;
20417;SDS011;10368;51.436;6.774;2023-05-07T10:16:54;3.28;;;2.10;;
20417;SDS011;10368;51.436;6.774;2023-05-07T10:19:21;3.40;;;1.90;;
20417;SDS011;10368;51.436;6.774;2023-05-07T10:21:54;4.20;;;2.25;;
20417;SDS011;10368;51.436;6.774;2023-05-07T10:24:26;1.80;;;1.52;;
20417;SDS011;10368;51.436;6.774;2023-05-07T10:27:01;1.85;;;1.63;;
20417;SDS011;10368;51.436;6.774;2023-05-07T10:34:46;2.15;;;1.98;;
20417;SDS011;10368;51.436;6.774;2023-05-07T10:37:15;1.90;;;1.80;;
20417;SDS011;10368;51.436;6.774;2023-05-07T10:39:43;4.20;;;2.08;;
20417;SDS011;10368;51.436;6.774;2023-05-07T10:42:14;3.38;;;3.08;;
20417;SDS011;10368;51.436;6.774;2023-05-07T10:44:41;4.82;;;2.85;;
20417;SDS011;10368;51.436;6.774;2023-05-07T10:47:09;2.92;;;2.70;;
20417;SDS011;10368;51.436;6.774;2023-05-07T10:52:10;3.95;;;2.10;;
20417;SDS011;10368;51.436;6.774;2023-05-07T10:54:42;3.42;;;1.98;;
20417;SDS011;10368;51.436;6.774;2023-05-07T11:00:03;3.42;;;3.13;;
20417;SDS011;10368;51.436;6.774;2023-05-07T11:03:04;8.45;;;5.80;;
20417;SDS011;10368;51.436;6.774;2023-05-07T11:05:33;2.35;;;2.15;;
20417;SDS011;10368;51.436;6.774;2023-05-07T11:08:04;3.38;;;2.60;;
20417;SDS011;10368;51.436;6.774;2023-05-07T11:10:47;4.07;;;2.80;;
20417;SDS011;10368;51.436;6.774;2023-05-07T11:18:47;4.13;;;3.25;;
20417;SDS011;10368;51.436;6.774;2023-05-07T11:21:35;3.30;;;3.00;;
20417;SDS011;10368;51.436;6.774;2023-05-07T11:24:06;5.25;;;3.85;;
20417;SDS011;10368;51.436;6.774;2023-05-07T11:27:09;4.22;;;3.15;;
20417;SDS011;10368;51.436;6.774;2023-05-07T11:29:28;3.17;;;2.13;;
20417;SDS011;10368;51.436;6.774;2023-05-07T11:31:56;3.95;;;3.55;;
20417;SDS011;10368;51.436;6.774;2023-05-07T11:34:25;2.83;;;2.50;;
20417;SDS011;10368;51.436;6.774;2023-05-07T11:36:52;6.88;;;2.35;;
20417;SDS011;10368;51.436;6.774;2023-05-07T11:39:22;3.03;;;2.70;;
20417;SDS011;10368;51.436;6.774;2023-05-07T11:41:53;5.22;;;2.10;;
20417;SDS011;10368;51.436;6.774;2023-05-07T11:44:20;2.75;;;2.55;;
20417;SDS011;10368;51.436;6.774;2023-05-07T11:46:47;4.20;;;2.95;;
20417;SDS011;10368;51.436;6.774;2023-05-07T11:49:15;2.90;;;2.65;;
20417;SDS011;10368;51.436;6.774;2023-05-07T11:51:42;6.10;;;5.45;;
20417;SDS011;10368;51.436;6.774;2023-05-07T11:54:09;4.45;;;3.10;;
20417;SDS011;10368;51.436;6.774;2023-05-07T11:56:37;4.00;;;3.10;;
20417;SDS011;10368;51.436;6.774;2023-05-07T11:59:05;5.32;;;4.78;;
20417;SDS011;10368;51.436;6.774;2023-05-07T12:01:34;4.10;;;3.70;;
20417;SDS011;10368;51.436;6.774;2023-05-07T12:04:02;3.40;;;2.40;;
20417;SDS011;10368;51.436;6.774;2023-05-07T12:06:30;4.00;;;3.50;;
20417;SDS011;10368;51.436;6.774;2023-05-07T12:08:57;7.38;;;6.57;;
20417;SDS011;10368;51.436;6.774;2023-05-07T12:11:24;4.75;;;3.72;;
20417;SDS011;10368;51.436;6.774;2023-05-07T12:13:53;7.65;;;4.47;;
20417;SDS011;10368;51.436;6.774;2023-05-07T12:16:24;3.33;;;2.53;;
20417;SDS011;10368;51.436;6.774;2023-05-07T12:18:51;7.35;;;5.18;;
20417;SDS011;10368;51.436;6.774;2023-05-07T12:21:21;4.10;;;3.60;;
20417;SDS011;10368;51.436;6.774;2023-05-07T12:23:49;9.93;;;7.75;;
20417;SDS011;10368;51.436;6.774;2023-05-07T12:26:16;9.18;;;6.22;;
20417;SDS011;10368;51.436;6.774;2023-05-07T12:28:45;5.88;;;4.53;;
20417;SDS011;10368;51.436;6.774;2023-05-07T12:31:13;16.85;;;12.90;;
20417;SDS011;10368;51.436;6.774;2023-05-07T12:33:41;7.63;;;5.85;;
20417;SDS011;10368;51.436;6.774;2023-05-07T12:36:09;5.15;;;3.90;;
20417;SDS011;10368;51.436;6.774;2023-05-07T12:38:38;19.20;;;13.48;;
20417;SDS011;10368;51.436;6.774;2023-05-07T12:41:07;4.20;;;3.75;;
20417;SDS011;10368;51.436;6.774;2023-05-07T12:43:46;5.57;;;4.85;;
20417;SDS011;10368;51.436;6.774;2023-05-07T12:46:13;13.32;;;8.70;;
20417;SDS011;10368;51.436;6.774;2023-05-07T12:48:44;5.38;;;4.38;;
20417;SDS011;10368;51.436;6.774;2023-05-07T12:51:12;5.97;;;4.97;;
20417;SDS011;10368;51.436;6.774;2023-05-07T12:53:41;4.47;;;3.80;;
20417;SDS011;10368;51.436;6.774;2023-05-07T12:56:09;10.80;;;7.75;;
20417;SDS011;10368;51.436;6.774;2023-05-07T12:58:36;5.35;;;3.83;;
20417;SDS011;10368;51.436;6.774;2023-05-07T13:01:06;9.18;;;4.60;;
20417;SDS011;10368;51.436;6.774;2023-05-07T13:03:36;3.20;;;2.85;;
20417;SDS011;10368;51.436;6.774;2023-05-07T13:06:05;3.10;;;2.75;;
20417;SDS011;10368;51.436;6.774;2023-05-07T13:08:37;6.47;;;3.90;;
20417;SDS011;10368;51.436;6.774;2023-05-07T13:11:07;3.08;;;2.58;;
20417;SDS011;10368;51.436;6.774;2023-05-07T13:13:37;5.45;;;2.63;;
20417;SDS011;10368;51.436;6.774;2023-05-07T13:16:05;8.52;;;2.70;;
20417;SDS011;10368;51.436;6.774;2023-05-07T13:18:34;4.63;;;3.47;;
20417;SDS011;10368;51.436;6.774;2023-05-07T13:21:01;3.58;;;3.28;;
20417;SDS011;10368;51.436;6.774;2023-05-07T13:23:28;3.22;;;2.90;;
20417;SDS011;10368;51.436;6.774;2023-05-07T13:25:55;3.65;;;2.95;;
20417;SDS011;10368;51.436;6.774;2023-05-07T13:28:23;3.20;;;3.00;;
20417;SDS011;10368;51.436;6.774;2023-05-07T13:30:50;3.92;;;3.40;;
20417;SDS011;10368;51.436;6.774;2023-05-07T13:33:18;3.53;;;3.22;;
20417;SDS011;10368;51.436;6.774;2023-05-07T13:35:45;3.85;;;3.35;;
20417;SDS011;10368;51.436;6.774;2023-05-07T13:38:12;3.63;;;3.33;;
20417;SDS011;10368;51.436;6.774;2023-05-07T13:40:39;3.67;;;3.13;;
20417;SDS011;10368;51.436;6.774;2023-05-07T13:43:06;3.33;;;3.03;;
20417;SDS011;10368;51.436;6.774;2023-05-07T13:45:32;3.92;;;3.60;;
20417;SDS011;10368;51.436;6.774;2023-05-07T13:48:00;4.32;;;2.95;;
20417;SDS011;10368;51.436;6.774;2023-05-07T13:50:27;3.25;;;2.95;;
20417;SDS011;10368;51.436;6.774;2023-05-07T13:52:55;4.20;;;3.80;;
20417;SDS011;10368;51.436;6.774;2023-05-07T13:55:23;5.47;;;4.78;;
20417;SDS011;10368;51.436;6.774;2023-05-07T13:57:57;4.28;;;3.92;;
20417;SDS011;10368;51.436;6.774;2023-05-07T14:00:25;5.88;;;4.68;;
20417;SDS011;10368;51.436;6.774;2023-05-07T14:02:53;7.35;;;4.70;;
20417;SDS011;10368;51.436;6.774;2023-05-07T14:05:21;4.35;;;3.78;;
20417;SDS011;10368;51.436;6.774;2023-05-07T14:07:51;8.65;;;5.57;;
20417;SDS011;10368;51.436;6.774;2023-05-07T14:10:19;10.70;;;6.28;;
20417;SDS011;10368;51.436;6.774;2023-05-07T14:12:46;4.38;;;4.07;;
20417;SDS011;10368;51.436;6.774;2023-05-07T14:15:14;4.18;;;3.88;;
20417;SDS011;10368;51.436;6.774;2023-05-07T14:17:42;5.47;;;4.60;;
20417;SDS011;10368;51.436;6.774;2023-05-07T14:20:10;5.05;;;4.60;;
20417;SDS011;10368;51.436;6.774;2023-05-07T14:22:39;6.97;;;6.38;;
20417;SDS011;10368;51.436;6.774;2023-05-07T14:25:06;7.32;;;6.63;;
20417;SDS011;10368;51.436;6.774;2023-05-07T14:27:33;6.47;;;5.88;;
20417;SDS011;10368;51.436;6.774;2023-05-07T14:30:00;7.00;;;5.93;;
20417;SDS011;10368;51.436;6.774;2023-05-07T14:32:27;6.55;;;5.50;;
20417;SDS011;10368;51.436;6.774;2023-05-07T14:34:54;6.90;;;6.00;;
20417;SDS011;10368;51.436;6.774;2023-05-07T14:37:21;6.35;;;5.70;;
20417;SDS011;10368;51.436;6.774;2023-05-07T14:39:47;6.90;;;6.30;;
20417;SDS011;10368;51.436;6.774;2023-05-07T14:42:16;9.68;;;5.95;;
20417;SDS011;10368;51.436;6.774;2023-05-07T14:44:43;8.23;;;6.55;;
20417;SDS011;10368;51.436;6.774;2023-05-07T14:47:12;8.30;;;7.22;;
20417;SDS011;10368;51.436;6.774;2023-05-07T14:49:39;6.90;;;5.65;;
20417;SDS011;10368;51.436;6.774;2023-05-07T14:52:07;9.40;;;6.68;;
20417;SDS011;10368;51.436;6.774;2023-05-07T14:54:36;8.65;;;6.97;;
20417;SDS011;10368;51.436;6.774;2023-05-07T14:57:04;8.50;;;7.10;;
20417;SDS011;10368;51.436;6.774;2023-05-07T14:59:32;10.85;;;8.07;;
20417;SDS011;10368;51.436;6.774;2023-05-07T15:02:00;9.95;;;8.68;;